sensor_id;sensor_type;location;lat;lon;timestamp;temperature;humidity
4813;DHT22;2420;51.202;8.698;2023-06-24T00:00:35;15.40;1.00
4813;DHT22;2420;51.202;8.698;2023-06-24T00:03:02;15.30;1.00
4813;DHT22;2420;51.202;8.698;2023-06-24T00:05:28;15.20;1.00
4813;DHT22;2420;51.202;8.698;2023-06-24T00:07:53;15.20;1.00
4813;DHT22;2420;51.202;8.698;2023-06-24T00:10:22;15.20;1.00
4813;DHT22;2420;51.202;8.698;2023-06-24T00:12:48;15.20;1.00
4813;DHT22;2420;51.202;8.698;2023-06-24T00:15:13;15.10;1.00
4813;DHT22;2420;51.202;8.698;2023-06-24T00:17:39;15.10;1.00
4813;DHT22;2420;51.202;8.698;2023-06-24T00:20:06;15.00;1.00
4813;DHT22;2420;51.202;8.698;2023-06-24T00:22:37;15.00;1.00
4813;DHT22;2420;51.202;8.698;2023-06-24T00:25:04;15.00;1.00
4813;DHT22;2420;51.202;8.698;2023-06-24T00:27:30;15.00;1.00
4813;DHT22;2420;51.202;8.698;2023-06-24T00:29:56;14.90;1.00
4813;DHT22;2420;51.202;8.698;2023-06-24T00:32:22;15.00;1.00
4813;DHT22;2420;51.202;8.698;2023-06-24T00:34:48;14.90;1.00
4813;DHT22;2420;51.202;8.698;2023-06-24T00:37:15;14.80;1.00
4813;DHT22;2420;51.202;8.698;2023-06-24T00:39:41;14.80;1.00
4813;DHT22;2420;51.202;8.698;2023-06-24T00:42:06;14.70;1.00
4813;DHT22;2420;51.202;8.698;2023-06-24T00:44:32;14.70;1.00
4813;DHT22;2420;51.202;8.698;2023-06-24T00:46:57;14.70;1.00
4813;DHT22;2420;51.202;8.698;2023-06-24T00:49:23;14.70;1.00
4813;DHT22;2420;51.202;8.698;2023-06-24T00:51:48;14.70;1.00
4813;DHT22;2420;51.202;8.698;2023-06-24T00:54:16;14.70;1.00
4813;DHT22;2420;51.202;8.698;2023-06-24T00:56:42;14.60;1.00
4813;DHT22;2420;51.202;8.698;2023-06-24T00:59:11;14.60;1.00
4813;DHT22;2420;51.202;8.698;2023-06-24T01:01:37;14.50;1.00
4813;DHT22;2420;51.202;8.698;2023-06-24T01:04:04;14.50;1.00
4813;DHT22;2420;51.202;8.698;2023-06-24T01:06:30;14.50;1.00
4813;DHT22;2420;51.202;8.698;2023-06-24T01:08:59;14.40;1.00
4813;DHT22;2420;51.202;8.698;2023-06-24T01:11:26;14.40;1.00
4813;DHT22;2420;51.202;8.698;2023-06-24T01:13:52;14.40;1.00
4813;DHT22;2420;51.202;8.698;2023-06-24T01:16:26;14.30;1.00
4813;DHT22;2420;51.202;8.698;2023-06-24T01:18:59;14.30;1.00
4813;DHT22;2420;51.202;8.698;2023-06-24T01:22:04;14.20;1.00
4813;DHT22;2420;51.202;8.698;2023-06-24T01:25:00;14.10;1.00
4813;DHT22;2420;51.202;8.698;2023-06-24T01:27:45;14.10;1.00
4813;DHT22;2420;51.202;8.698;2023-06-24T01:33:10;14.10;1.00
4813;DHT22;2420;51.202;8.698;2023-06-24T01:35:36;14.10;1.00
4813;DHT22;2420;51.202;8.698;2023-06-24T01:38:17;14.00;1.00
4813;DHT22;2420;51.202;8.698;2023-06-24T01:40:46;14.00;1.00
4813;DHT22;2420;51.202;8.698;2023-06-24T01:43:13;14.00;1.00
4813;DHT22;2420;51.202;8.698;2023-06-24T01:45:42;14.00;1.00
4813;DHT22;2420;51.202;8.698;2023-06-24T01:48:11;13.90;1.00
4813;DHT22;2420;51.202;8.698;2023-06-24T01:50:41;13.90;1.00
4813;DHT22;2420;51.202;8.698;2023-06-24T01:53:08;13.80;1.00
4813;DHT22;2420;51.202;8.698;2023-06-24T01:55:35;13.80;1.00
4813;DHT22;2420;51.202;8.698;2023-06-24T01:58:04;13.80;1.00
4813;DHT22;2420;51.202;8.698;2023-06-24T02:00:32;13.80;1.00
4813;DHT22;2420;51.202;8.698;2023-06-24T02:02:59;13.70;1.00
4813;DHT22;2420;51.202;8.698;2023-06-24T02:05:25;13.70;1.00
4813;DHT22;2420;51.202;8.698;2023-06-24T02:07:52;13.70;1.00
4813;DHT22;2420;51.202;8.698;2023-06-24T02:10:20;13.70;1.00
4813;DHT22;2420;51.202;8.698;2023-06-24T02:12:48;13.70;1.00
4813;DHT22;2420;51.202;8.698;2023-06-24T02:15:15;13.70;1.00
4813;DHT22;2420;51.202;8.698;2023-06-24T02:17:41;13.70;1.00
4813;DHT22;2420;51.202;8.698;2023-06-24T02:20:08;13.60;1.00
4813;DHT22;2420;51.202;8.698;2023-06-24T02:22:38;13.50;1.00
4813;DHT22;2420;51.202;8.698;2023-06-24T02:25:05;13.60;1.00
4813;DHT22;2420;51.202;8.698;2023-06-24T02:27:32;13.60;1.00
4813;DHT22;2420;51.202;8.698;2023-06-24T02:29:58;13.60;1.00
4813;DHT22;2420;51.202;8.698;2023-06-24T02:32:25;13.60;1.00
4813;DHT22;2420;51.202;8.698;2023-06-24T02:34:50;13.50;1.00
4813;DHT22;2420;51.202;8.698;2023-06-24T02:37:16;13.40;1.00
4813;DHT22;2420;51.202;8.698;2023-06-24T02:39:42;13.30;1.00
4813;DHT22;2420;51.202;8.698;2023-06-24T02:42:10;13.40;1.00
4813;DHT22;2420;51.202;8.698;2023-06-24T02:44:38;13.40;1.00
4813;DHT22;2420;51.202;8.698;2023-06-24T02:47:06;13.40;1.00
4813;DHT22;2420;51.202;8.698;2023-06-24T02:49:33;13.30;1.00
4813;DHT22;2420;51.202;8.698;2023-06-24T02:52:00;13.30;1.00
4813;DHT22;2420;51.202;8.698;2023-06-24T02:54:26;13.30;1.00
4813;DHT22;2420;51.202;8.698;2023-06-24T02:56:52;13.30;1.00
4813;DHT22;2420;51.202;8.698;2023-06-24T02:59:18;13.20;1.00
4813;DHT22;2420;51.202;8.698;2023-06-24T03:01:47;13.20;1.00
4813;DHT22;2420;51.202;8.698;2023-06-24T03:04:13;13.20;1.00
4813;DHT22;2420;51.202;8.698;2023-06-24T03:06:39;13.20;1.00
4813;DHT22;2420;51.202;8.698;2023-06-24T03:09:06;13.20;1.00
4813;DHT22;2420;51.202;8.698;2023-06-24T03:11:40;13.10;1.00
4813;DHT22;2420;51.202;8.698;2023-06-24T03:14:06;13.10;1.00
4813;DHT22;2420;51.202;8.698;2023-06-24T03:16:31;13.10;1.00
4813;DHT22;2420;51.202;8.698;2023-06-24T03:18:57;13.10;1.00
4813;DHT22;2420;51.202;8.698;2023-06-24T03:21:22;13.10;1.00
4813;DHT22;2420;51.202;8.698;2023-06-24T03:23:56;13.20;1.00
4813;DHT22;2420;51.202;8.698;2023-06-24T03:26:30;13.20;1.00
4813;DHT22;2420;51.202;8.698;2023-06-24T03:28:56;13.20;1.00
4813;DHT22;2420;51.202;8.698;2023-06-24T03:31:21;13.10;1.00
4813;DHT22;2420;51.202;8.698;2023-06-24T03:33:48;13.20;1.00
4813;DHT22;2420;51.202;8.698;2023-06-24T03:36:14;13.20;1.00
4813;DHT22;2420;51.202;8.698;2023-06-24T03:38:39;13.20;1.00
4813;DHT22;2420;51.202;8.698;2023-06-24T03:41:06;13.10;1.00
4813;DHT22;2420;51.202;8.698;2023-06-24T03:43:31;13.20;1.00
4813;DHT22;2420;51.202;8.698;2023-06-24T03:45:57;13.20;1.00
4813;DHT22;2420;51.202;8.698;2023-06-24T03:48:22;13.20;1.00
4813;DHT22;2420;51.202;8.698;2023-06-24T03:50:48;13.20;1.00
4813;DHT22;2420;51.202;8.698;2023-06-24T03:53:13;13.30;1.00
4813;DHT22;2420;51.202;8.698;2023-06-24T03:55:39;13.30;1.00
4813;DHT22;2420;51.202;8.698;2023-06-24T03:58:04;13.30;1.00
4813;DHT22;2420;51.202;8.698;2023-06-24T04:00:30;13.30;1.00
4813;DHT22;2420;51.202;8.698;2023-06-24T04:02:56;13.30;1.00
4813;DHT22;2420;51.202;8.698;2023-06-24T04:05:22;13.30;1.00
4813;DHT22;2420;51.202;8.698;2023-06-24T04:07:49;13.40;1.00
4813;DHT22;2420;51.202;8.698;2023-06-24T04:10:17;13.40;1.00
4813;DHT22;2420;51.202;8.698;2023-06-24T04:12:43;13.50;1.00
4813;DHT22;2420;51.202;8.698;2023-06-24T04:15:09;13.40;1.00
4813;DHT22;2420;51.202;8.698;2023-06-24T04:17:35;13.50;1.00
4813;DHT22;2420;51.202;8.698;2023-06-24T04:20:01;13.50;1.00
4813;DHT22;2420;51.202;8.698;2023-06-24T04:22:29;13.60;1.00
4813;DHT22;2420;51.202;8.698;2023-06-24T04:24:54;13.70;1.00
4813;DHT22;2420;51.202;8.698;2023-06-24T04:27:20;13.80;1.00
4813;DHT22;2420;51.202;8.698;2023-06-24T04:29:46;13.80;1.00
4813;DHT22;2420;51.202;8.698;2023-06-24T04:32:11;14.20;1.00
4813;DHT22;2420;51.202;8.698;2023-06-24T04:34:37;14.60;1.00
4813;DHT22;2420;51.202;8.698;2023-06-24T04:37:02;14.90;1.00
4813;DHT22;2420;51.202;8.698;2023-06-24T04:39:28;15.00;1.00
4813;DHT22;2420;51.202;8.698;2023-06-24T04:41:53;15.00;1.00
4813;DHT22;2420;51.202;8.698;2023-06-24T04:44:19;14.90;1.00
4813;DHT22;2420;51.202;8.698;2023-06-24T04:46:45;14.80;1.00
4813;DHT22;2420;51.202;8.698;2023-06-24T04:49:11;14.80;1.00
4813;DHT22;2420;51.202;8.698;2023-06-24T04:51:37;14.80;1.00
4813;DHT22;2420;51.202;8.698;2023-06-24T04:54:02;14.90;1.00
4813;DHT22;2420;51.202;8.698;2023-06-24T04:56:29;14.90;1.00
4813;DHT22;2420;51.202;8.698;2023-06-24T04:58:54;15.10;1.00
4813;DHT22;2420;51.202;8.698;2023-06-24T05:01:20;15.40;1.00
4813;DHT22;2420;51.202;8.698;2023-06-24T05:03:47;15.80;1.00
4813;DHT22;2420;51.202;8.698;2023-06-24T05:06:12;16.10;1.00
4813;DHT22;2420;51.202;8.698;2023-06-24T05:08:38;16.50;1.00
4813;DHT22;2420;51.202;8.698;2023-06-24T05:11:03;16.80;1.00
4813;DHT22;2420;51.202;8.698;2023-06-24T05:13:29;17.20;1.00
4813;DHT22;2420;51.202;8.698;2023-06-24T05:15:55;17.70;1.00
4813;DHT22;2420;51.202;8.698;2023-06-24T05:18:20;18.00;1.00
4813;DHT22;2420;51.202;8.698;2023-06-24T05:20:46;18.40;1.00
4813;DHT22;2420;51.202;8.698;2023-06-24T05:23:11;18.50;1.00
4813;DHT22;2420;51.202;8.698;2023-06-24T05:25:37;19.00;1.00
4813;DHT22;2420;51.202;8.698;2023-06-24T05:28:02;19.20;1.00
4813;DHT22;2420;51.202;8.698;2023-06-24T05:30:28;19.60;1.00
4813;DHT22;2420;51.202;8.698;2023-06-24T05:32:53;19.60;1.00
4813;DHT22;2420;51.202;8.698;2023-06-24T05:35:19;19.50;1.00
4813;DHT22;2420;51.202;8.698;2023-06-24T05:37:45;19.70;1.00
4813;DHT22;2420;51.202;8.698;2023-06-24T05:40:10;19.70;1.00
4813;DHT22;2420;51.202;8.698;2023-06-24T05:42:38;19.70;1.00
4813;DHT22;2420;51.202;8.698;2023-06-24T05:45:04;19.80;1.00
4813;DHT22;2420;51.202;8.698;2023-06-24T05:47:30;19.60;1.00
4813;DHT22;2420;51.202;8.698;2023-06-24T05:49:55;19.70;1.00
4813;DHT22;2420;51.202;8.698;2023-06-24T05:52:21;19.70;1.00
4813;DHT22;2420;51.202;8.698;2023-06-24T05:54:46;19.70;1.00
4813;DHT22;2420;51.202;8.698;2023-06-24T05:57:12;19.70;1.00
4813;DHT22;2420;51.202;8.698;2023-06-24T05:59:37;19.50;1.00
4813;DHT22;2420;51.202;8.698;2023-06-24T06:02:03;19.20;1.00
4813;DHT22;2420;51.202;8.698;2023-06-24T06:04:29;19.10;1.00
4813;DHT22;2420;51.202;8.698;2023-06-24T06:06:54;19.10;1.00
4813;DHT22;2420;51.202;8.698;2023-06-24T06:09:21;18.90;1.00
4813;DHT22;2420;51.202;8.698;2023-06-24T06:11:47;18.90;1.00
4813;DHT22;2420;51.202;8.698;2023-06-24T06:14:13;19.00;1.00
4813;DHT22;2420;51.202;8.698;2023-06-24T06:16:39;19.10;1.00
4813;DHT22;2420;51.202;8.698;2023-06-24T06:19:04;19.20;1.00
4813;DHT22;2420;51.202;8.698;2023-06-24T06:21:30;19.10;1.00
4813;DHT22;2420;51.202;8.698;2023-06-24T06:23:55;18.90;1.00
4813;DHT22;2420;51.202;8.698;2023-06-24T06:26:21;19.10;1.00
4813;DHT22;2420;51.202;8.698;2023-06-24T06:28:47;19.20;1.00
4813;DHT22;2420;51.202;8.698;2023-06-24T06:31:13;19.10;1.00
4813;DHT22;2420;51.202;8.698;2023-06-24T06:33:39;19.00;1.00
4813;DHT22;2420;51.202;8.698;2023-06-24T06:36:04;19.10;1.00
4813;DHT22;2420;51.202;8.698;2023-06-24T06:38:32;18.90;1.00
4813;DHT22;2420;51.202;8.698;2023-06-24T06:40:58;18.90;1.00
4813;DHT22;2420;51.202;8.698;2023-06-24T06:43:27;19.20;1.00
4813;DHT22;2420;51.202;8.698;2023-06-24T06:45:52;19.30;1.00
4813;DHT22;2420;51.202;8.698;2023-06-24T06:48:18;19.20;1.00
4813;DHT22;2420;51.202;8.698;2023-06-24T06:50:45;19.40;1.00
4813;DHT22;2420;51.202;8.698;2023-06-24T06:53:11;19.50;1.00
4813;DHT22;2420;51.202;8.698;2023-06-24T06:55:36;19.70;1.00
4813;DHT22;2420;51.202;8.698;2023-06-24T06:58:04;19.90;1.00
4813;DHT22;2420;51.202;8.698;2023-06-24T07:00:30;20.10;1.00
4813;DHT22;2420;51.202;8.698;2023-06-24T07:02:55;20.30;1.00
4813;DHT22;2420;51.202;8.698;2023-06-24T07:05:21;20.50;1.00
4813;DHT22;2420;51.202;8.698;2023-06-24T07:07:46;20.60;1.00
4813;DHT22;2420;51.202;8.698;2023-06-24T07:10:12;20.80;1.00
4813;DHT22;2420;51.202;8.698;2023-06-24T07:12:38;20.80;1.00
4813;DHT22;2420;51.202;8.698;2023-06-24T07:15:04;20.90;1.00
4813;DHT22;2420;51.202;8.698;2023-06-24T07:17:30;21.00;1.00
4813;DHT22;2420;51.202;8.698;2023-06-24T07:19:55;21.30;1.00
4813;DHT22;2420;51.202;8.698;2023-06-24T07:22:21;21.40;1.00
4813;DHT22;2420;51.202;8.698;2023-06-24T07:24:47;21.50;1.00
4813;DHT22;2420;51.202;8.698;2023-06-24T07:27:12;21.80;1.00
4813;DHT22;2420;51.202;8.698;2023-06-24T07:29:38;22.00;1.00
4813;DHT22;2420;51.202;8.698;2023-06-24T07:32:03;22.10;1.00
4813;DHT22;2420;51.202;8.698;2023-06-24T07:34:29;22.10;1.00
4813;DHT22;2420;51.202;8.698;2023-06-24T07:36:56;22.20;1.00
4813;DHT22;2420;51.202;8.698;2023-06-24T07:39:21;22.30;1.00
4813;DHT22;2420;51.202;8.698;2023-06-24T07:41:47;22.60;1.00
4813;DHT22;2420;51.202;8.698;2023-06-24T07:44:12;22.60;1.00
4813;DHT22;2420;51.202;8.698;2023-06-24T07:46:38;22.60;1.00
4813;DHT22;2420;51.202;8.698;2023-06-24T07:49:03;22.80;1.00
4813;DHT22;2420;51.202;8.698;2023-06-24T07:51:29;22.90;1.00
4813;DHT22;2420;51.202;8.698;2023-06-24T07:53:54;22.60;1.00
4813;DHT22;2420;51.202;8.698;2023-06-24T07:56:20;22.70;1.00
4813;DHT22;2420;51.202;8.698;2023-06-24T07:58:45;23.10;1.00
4813;DHT22;2420;51.202;8.698;2023-06-24T08:01:11;23.20;1.00
4813;DHT22;2420;51.202;8.698;2023-06-24T08:03:36;23.10;1.00
4813;DHT22;2420;51.202;8.698;2023-06-24T08:06:02;23.30;1.00
4813;DHT22;2420;51.202;8.698;2023-06-24T08:08:28;23.50;1.00
4813;DHT22;2420;51.202;8.698;2023-06-24T08:10:54;23.70;1.00
4813;DHT22;2420;51.202;8.698;2023-06-24T08:13:20;23.70;1.00
4813;DHT22;2420;51.202;8.698;2023-06-24T08:15:46;23.90;1.00
4813;DHT22;2420;51.202;8.698;2023-06-24T08:18:12;24.10;1.00
4813;DHT22;2420;51.202;8.698;2023-06-24T08:20:37;24.10;1.00
4813;DHT22;2420;51.202;8.698;2023-06-24T08:23:03;24.30;1.00
4813;DHT22;2420;51.202;8.698;2023-06-24T08:25:29;24.40;1.00
4813;DHT22;2420;51.202;8.698;2023-06-24T08:27:58;24.30;1.00
4813;DHT22;2420;51.202;8.698;2023-06-24T08:30:25;24.40;1.00
4813;DHT22;2420;51.202;8.698;2023-06-24T08:32:51;24.50;1.00
4813;DHT22;2420;51.202;8.698;2023-06-24T08:35:16;24.80;1.00
4813;DHT22;2420;51.202;8.698;2023-06-24T08:37:42;24.90;1.00
4813;DHT22;2420;51.202;8.698;2023-06-24T08:40:08;24.60;1.00
4813;DHT22;2420;51.202;8.698;2023-06-24T08:42:34;24.60;1.00
4813;DHT22;2420;51.202;8.698;2023-06-24T08:44:59;24.80;1.00
4813;DHT22;2420;51.202;8.698;2023-06-24T08:47:25;25.00;1.00
4813;DHT22;2420;51.202;8.698;2023-06-24T08:49:59;25.20;1.00
4813;DHT22;2420;51.202;8.698;2023-06-24T08:52:30;24.80;1.00
4813;DHT22;2420;51.202;8.698;2023-06-24T08:54:59;24.50;1.00
4813;DHT22;2420;51.202;8.698;2023-06-24T08:57:25;24.40;1.00
4813;DHT22;2420;51.202;8.698;2023-06-24T08:59:51;24.50;1.00
4813;DHT22;2420;51.202;8.698;2023-06-24T09:02:17;24.60;1.00
4813;DHT22;2420;51.202;8.698;2023-06-24T09:04:43;24.90;1.00
4813;DHT22;2420;51.202;8.698;2023-06-24T09:07:08;25.20;1.00
4813;DHT22;2420;51.202;8.698;2023-06-24T09:09:42;24.90;1.00
4813;DHT22;2420;51.202;8.698;2023-06-24T09:12:13;24.80;1.00
4813;DHT22;2420;51.202;8.698;2023-06-24T09:14:39;25.00;1.00
4813;DHT22;2420;51.202;8.698;2023-06-24T09:17:06;24.70;1.00
4813;DHT22;2420;51.202;8.698;2023-06-24T09:19:32;24.60;1.00
4813;DHT22;2420;51.202;8.698;2023-06-24T09:22:06;24.40;1.00
4813;DHT22;2420;51.202;8.698;2023-06-24T09:24:33;24.30;1.00
4813;DHT22;2420;51.202;8.698;2023-06-24T09:26:58;24.00;1.00
4813;DHT22;2420;51.202;8.698;2023-06-24T09:29:28;23.70;1.00
4813;DHT22;2420;51.202;8.698;2023-06-24T09:31:54;23.40;1.00
4813;DHT22;2420;51.202;8.698;2023-06-24T09:34:25;23.50;1.00
4813;DHT22;2420;51.202;8.698;2023-06-24T09:36:58;23.80;1.00
4813;DHT22;2420;51.202;8.698;2023-06-24T09:39:25;23.80;1.00
4813;DHT22;2420;51.202;8.698;2023-06-24T09:41:58;23.70;1.00
4813;DHT22;2420;51.202;8.698;2023-06-24T09:44:24;23.90;1.00
4813;DHT22;2420;51.202;8.698;2023-06-24T09:46:50;24.20;1.00
4813;DHT22;2420;51.202;8.698;2023-06-24T09:49:16;24.20;1.00
4813;DHT22;2420;51.202;8.698;2023-06-24T09:51:48;23.80;1.00
4813;DHT22;2420;51.202;8.698;2023-06-24T09:54:15;23.50;1.00
4813;DHT22;2420;51.202;8.698;2023-06-24T09:56:45;23.40;1.00
4813;DHT22;2420;51.202;8.698;2023-06-24T09:59:13;23.40;1.00
4813;DHT22;2420;51.202;8.698;2023-06-24T10:01:41;23.30;1.00
4813;DHT22;2420;51.202;8.698;2023-06-24T10:04:13;23.30;1.00
4813;DHT22;2420;51.202;8.698;2023-06-24T10:06:38;23.20;1.00
4813;DHT22;2420;51.202;8.698;2023-06-24T10:09:04;23.20;1.00
4813;DHT22;2420;51.202;8.698;2023-06-24T10:11:30;23.70;1.00
4813;DHT22;2420;51.202;8.698;2023-06-24T10:13:56;24.40;1.00
4813;DHT22;2420;51.202;8.698;2023-06-24T10:16:22;25.00;1.00
4813;DHT22;2420;51.202;8.698;2023-06-24T10:18:48;25.20;1.00
4813;DHT22;2420;51.202;8.698;2023-06-24T10:21:15;24.70;1.00
4813;DHT22;2420;51.202;8.698;2023-06-24T10:23:53;24.30;1.00
4813;DHT22;2420;51.202;8.698;2023-06-24T10:26:29;24.20;1.00
4813;DHT22;2420;51.202;8.698;2023-06-24T10:29:08;24.70;1.00
4813;DHT22;2420;51.202;8.698;2023-06-24T10:34:32;24.70;1.00
4813;DHT22;2420;51.202;8.698;2023-06-24T10:39:53;25.50;1.00
4813;DHT22;2420;51.202;8.698;2023-06-24T10:42:26;25.80;1.00
4813;DHT22;2420;51.202;8.698;2023-06-24T10:44:52;25.60;1.00
4813;DHT22;2420;51.202;8.698;2023-06-24T10:47:19;25.20;1.00
4813;DHT22;2420;51.202;8.698;2023-06-24T10:49:45;24.40;1.00
4813;DHT22;2420;51.202;8.698;2023-06-24T10:52:11;24.00;1.00
4813;DHT22;2420;51.202;8.698;2023-06-24T10:54:38;23.80;1.00
4813;DHT22;2420;51.202;8.698;2023-06-24T10:57:04;23.70;1.00
4813;DHT22;2420;51.202;8.698;2023-06-24T10:59:49;23.60;1.00
4813;DHT22;2420;51.202;8.698;2023-06-24T11:02:16;23.60;1.00
4813;DHT22;2420;51.202;8.698;2023-06-24T11:04:56;23.60;1.00
4813;DHT22;2420;51.202;8.698;2023-06-24T11:07:23;23.70;1.00
4813;DHT22;2420;51.202;8.698;2023-06-24T11:09:56;23.60;1.00
4813;DHT22;2420;51.202;8.698;2023-06-24T11:12:27;23.80;1.00
4813;DHT22;2420;51.202;8.698;2023-06-24T11:14:57;24.00;1.00
4813;DHT22;2420;51.202;8.698;2023-06-24T11:17:24;24.30;1.00
4813;DHT22;2420;51.202;8.698;2023-06-24T11:19:49;24.60;1.00
4813;DHT22;2420;51.202;8.698;2023-06-24T11:22:15;24.80;1.00
4813;DHT22;2420;51.202;8.698;2023-06-24T11:24:41;24.90;1.00
4813;DHT22;2420;51.202;8.698;2023-06-24T11:27:07;25.30;1.00
4813;DHT22;2420;51.202;8.698;2023-06-24T11:29:33;25.30;1.00
4813;DHT22;2420;51.202;8.698;2023-06-24T11:32:01;25.20;1.00
4813;DHT22;2420;51.202;8.698;2023-06-24T11:34:28;25.30;1.00
4813;DHT22;2420;51.202;8.698;2023-06-24T11:36:53;25.60;1.00
4813;DHT22;2420;51.202;8.698;2023-06-24T11:41:49;26.00;1.00
4813;DHT22;2420;51.202;8.698;2023-06-24T11:44:14;26.30;1.00
4813;DHT22;2420;51.202;8.698;2023-06-24T11:46:40;25.90;1.00
4813;DHT22;2420;51.202;8.698;2023-06-24T11:49:07;25.40;1.00
4813;DHT22;2420;51.202;8.698;2023-06-24T11:51:34;25.00;1.00
4813;DHT22;2420;51.202;8.698;2023-06-24T11:54:04;25.00;1.00
4813;DHT22;2420;51.202;8.698;2023-06-24T11:56:37;24.90;1.00
4813;DHT22;2420;51.202;8.698;2023-06-24T11:59:17;25.20;1.00
4813;DHT22;2420;51.202;8.698;2023-06-24T12:01:43;25.00;1.00
4813;DHT22;2420;51.202;8.698;2023-06-24T12:04:14;25.10;1.00
4813;DHT22;2420;51.202;8.698;2023-06-24T12:06:43;25.60;1.00
4813;DHT22;2420;51.202;8.698;2023-06-24T12:09:09;25.90;1.00
4813;DHT22;2420;51.202;8.698;2023-06-24T12:11:37;26.10;1.00
4813;DHT22;2420;51.202;8.698;2023-06-24T12:14:03;26.10;1.00
4813;DHT22;2420;51.202;8.698;2023-06-24T12:16:29;26.20;1.00
4813;DHT22;2420;51.202;8.698;2023-06-24T12:18:55;26.20;1.00
4813;DHT22;2420;51.202;8.698;2023-06-24T12:21:21;26.40;1.00
4813;DHT22;2420;51.202;8.698;2023-06-24T12:23:46;26.60;1.00
4813;DHT22;2420;51.202;8.698;2023-06-24T12:26:12;26.60;1.00
4813;DHT22;2420;51.202;8.698;2023-06-24T12:28:38;26.50;1.00
4813;DHT22;2420;51.202;8.698;2023-06-24T12:31:04;26.10;1.00
4813;DHT22;2420;51.202;8.698;2023-06-24T12:33:30;26.20;1.00
4813;DHT22;2420;51.202;8.698;2023-06-24T12:35:55;26.40;1.00
4813;DHT22;2420;51.202;8.698;2023-06-24T12:38:21;26.50;1.00
4813;DHT22;2420;51.202;8.698;2023-06-24T12:40:46;26.60;1.00
4813;DHT22;2420;51.202;8.698;2023-06-24T12:43:13;26.40;1.00
4813;DHT22;2420;51.202;8.698;2023-06-24T12:45:39;26.10;1.00
4813;DHT22;2420;51.202;8.698;2023-06-24T12:48:05;25.90;1.00
4813;DHT22;2420;51.202;8.698;2023-06-24T12:50:30;25.80;1.00
4813;DHT22;2420;51.202;8.698;2023-06-24T12:52:57;25.70;1.00
4813;DHT22;2420;51.202;8.698;2023-06-24T12:55:23;25.60;1.00
4813;DHT22;2420;51.202;8.698;2023-06-24T12:57:48;25.60;1.00
4813;DHT22;2420;51.202;8.698;2023-06-24T13:00:14;25.60;1.00
4813;DHT22;2420;51.202;8.698;2023-06-24T13:02:40;25.60;1.00
4813;DHT22;2420;51.202;8.698;2023-06-24T13:05:06;25.60;1.00
4813;DHT22;2420;51.202;8.698;2023-06-24T13:07:31;25.60;1.00
4813;DHT22;2420;51.202;8.698;2023-06-24T13:09:57;25.60;1.00
4813;DHT22;2420;51.202;8.698;2023-06-24T13:12:24;25.80;1.00
4813;DHT22;2420;51.202;8.698;2023-06-24T13:14:50;25.80;1.00
4813;DHT22;2420;51.202;8.698;2023-06-24T13:17:15;25.60;1.00
4813;DHT22;2420;51.202;8.698;2023-06-24T13:19:41;25.40;1.00
4813;DHT22;2420;51.202;8.698;2023-06-24T13:22:06;25.30;1.00
4813;DHT22;2420;51.202;8.698;2023-06-24T13:24:32;25.40;1.00
4813;DHT22;2420;51.202;8.698;2023-06-24T13:26:57;25.50;1.00
4813;DHT22;2420;51.202;8.698;2023-06-24T13:29:23;25.60;1.00
4813;DHT22;2420;51.202;8.698;2023-06-24T13:31:49;25.80;1.00
4813;DHT22;2420;51.202;8.698;2023-06-24T13:34:14;26.10;1.00
4813;DHT22;2420;51.202;8.698;2023-06-24T13:36:40;26.30;1.00
4813;DHT22;2420;51.202;8.698;2023-06-24T13:39:08;26.20;1.00
4813;DHT22;2420;51.202;8.698;2023-06-24T13:41:37;26.00;1.00
4813;DHT22;2420;51.202;8.698;2023-06-24T13:44:03;25.70;1.00
4813;DHT22;2420;51.202;8.698;2023-06-24T13:46:30;25.60;1.00
4813;DHT22;2420;51.202;8.698;2023-06-24T13:48:59;25.50;1.00
4813;DHT22;2420;51.202;8.698;2023-06-24T13:51:25;25.60;1.00
4813;DHT22;2420;51.202;8.698;2023-06-24T13:53:52;25.80;1.00
4813;DHT22;2420;51.202;8.698;2023-06-24T13:56:22;25.80;1.00
4813;DHT22;2420;51.202;8.698;2023-06-24T13:58:50;25.70;1.00
4813;DHT22;2420;51.202;8.698;2023-06-24T14:01:15;25.30;1.00
4813;DHT22;2420;51.202;8.698;2023-06-24T14:03:41;25.10;1.00
4813;DHT22;2420;51.202;8.698;2023-06-24T14:06:08;25.00;1.00
4813;DHT22;2420;51.202;8.698;2023-06-24T14:08:34;24.90;1.00
4813;DHT22;2420;51.202;8.698;2023-06-24T14:11:00;25.00;1.00
4813;DHT22;2420;51.202;8.698;2023-06-24T14:13:27;25.10;1.00
4813;DHT22;2420;51.202;8.698;2023-06-24T14:15:54;25.20;1.00
4813;DHT22;2420;51.202;8.698;2023-06-24T14:18:19;25.00;1.00
4813;DHT22;2420;51.202;8.698;2023-06-24T14:20:45;25.10;1.00
4813;DHT22;2420;51.202;8.698;2023-06-24T14:23:11;25.30;1.00
4813;DHT22;2420;51.202;8.698;2023-06-24T14:25:37;25.50;1.00
4813;DHT22;2420;51.202;8.698;2023-06-24T14:28:04;25.80;1.00
4813;DHT22;2420;51.202;8.698;2023-06-24T14:30:30;25.90;1.00
4813;DHT22;2420;51.202;8.698;2023-06-24T14:32:55;25.80;1.00
4813;DHT22;2420;51.202;8.698;2023-06-24T14:35:21;25.80;1.00
4813;DHT22;2420;51.202;8.698;2023-06-24T14:37:46;25.90;1.00
4813;DHT22;2420;51.202;8.698;2023-06-24T14:40:12;25.80;1.00
4813;DHT22;2420;51.202;8.698;2023-06-24T14:42:37;25.80;1.00
4813;DHT22;2420;51.202;8.698;2023-06-24T14:45:03;25.60;1.00
4813;DHT22;2420;51.202;8.698;2023-06-24T14:47:29;25.60;1.00
4813;DHT22;2420;51.202;8.698;2023-06-24T14:49:54;25.70;1.00
4813;DHT22;2420;51.202;8.698;2023-06-24T14:52:20;25.70;1.00
4813;DHT22;2420;51.202;8.698;2023-06-24T14:54:46;25.70;1.00
4813;DHT22;2420;51.202;8.698;2023-06-24T14:57:12;25.60;1.00
4813;DHT22;2420;51.202;8.698;2023-06-24T14:59:38;25.50;1.00
4813;DHT22;2420;51.202;8.698;2023-06-24T15:02:04;25.60;1.00
4813;DHT22;2420;51.202;8.698;2023-06-24T15:04:29;25.80;1.00
4813;DHT22;2420;51.202;8.698;2023-06-24T15:06:55;25.90;1.00
4813;DHT22;2420;51.202;8.698;2023-06-24T15:09:22;25.70;1.00
4813;DHT22;2420;51.202;8.698;2023-06-24T15:11:48;25.70;1.00
4813;DHT22;2420;51.202;8.698;2023-06-24T15:14:13;25.60;1.00
4813;DHT22;2420;51.202;8.698;2023-06-24T15:16:39;25.60;1.00
4813;DHT22;2420;51.202;8.698;2023-06-24T15:19:05;25.60;1.00
4813;DHT22;2420;51.202;8.698;2023-06-24T15:21:30;25.60;1.00
4813;DHT22;2420;51.202;8.698;2023-06-24T15:23:56;25.70;1.00
4813;DHT22;2420;51.202;8.698;2023-06-24T15:26:21;25.70;1.00
4813;DHT22;2420;51.202;8.698;2023-06-24T15:28:47;25.60;1.00
4813;DHT22;2420;51.202;8.698;2023-06-24T15:31:13;25.80;1.00
4813;DHT22;2420;51.202;8.698;2023-06-24T15:33:38;25.80;1.00
4813;DHT22;2420;51.202;8.698;2023-06-24T15:36:04;25.80;1.00
4813;DHT22;2420;51.202;8.698;2023-06-24T15:38:29;25.60;1.00
4813;DHT22;2420;51.202;8.698;2023-06-24T15:40:55;25.60;1.00
4813;DHT22;2420;51.202;8.698;2023-06-24T15:43:21;25.50;1.00
4813;DHT22;2420;51.202;8.698;2023-06-24T15:45:46;25.30;1.00
4813;DHT22;2420;51.202;8.698;2023-06-24T15:48:12;25.10;1.00
4813;DHT22;2420;51.202;8.698;2023-06-24T15:50:39;25.00;1.00
4813;DHT22;2420;51.202;8.698;2023-06-24T15:53:04;24.90;1.00
4813;DHT22;2420;51.202;8.698;2023-06-24T15:55:30;24.80;1.00
4813;DHT22;2420;51.202;8.698;2023-06-24T15:57:55;24.80;1.00
4813;DHT22;2420;51.202;8.698;2023-06-24T16:00:21;24.80;1.00
4813;DHT22;2420;51.202;8.698;2023-06-24T16:02:47;24.80;1.00
4813;DHT22;2420;51.202;8.698;2023-06-24T16:05:13;24.90;1.00
4813;DHT22;2420;51.202;8.698;2023-06-24T16:07:38;24.80;1.00
4813;DHT22;2420;51.202;8.698;2023-06-24T16:10:05;24.90;1.00
4813;DHT22;2420;51.202;8.698;2023-06-24T16:12:30;24.70;1.00
4813;DHT22;2420;51.202;8.698;2023-06-24T16:14:56;24.70;1.00
4813;DHT22;2420;51.202;8.698;2023-06-24T16:17:22;24.70;1.00
4813;DHT22;2420;51.202;8.698;2023-06-24T16:19:47;24.70;1.00
4813;DHT22;2420;51.202;8.698;2023-06-24T16:22:13;24.60;1.00
4813;DHT22;2420;51.202;8.698;2023-06-24T16:24:39;24.50;1.00